createdAt,value
2022-08-16T00:01:05.767Z,7.50
2022-08-16T00:03:47.561Z,7.57
2022-08-16T00:06:36.602Z,8.07
2022-08-16T00:09:26.540Z,8.75
2022-08-16T00:12:18.050Z,8.27
2022-08-16T00:14:58.515Z,8.25
2022-08-16T00:17:57.105Z,8.20
2022-08-16T00:20:46.567Z,8.18
2022-08-16T00:23:40.016Z,8.80
2022-08-16T00:26:35.627Z,8.30
2022-08-16T00:29:24.513Z,7.80
2022-08-16T00:32:13.557Z,7.22
2022-08-16T00:34:57.535Z,7.60
2022-08-16T00:37:56.862Z,8.38
2022-08-16T00:40:58.585Z,7.35
2022-08-16T00:43:42.813Z,8.40
2022-08-16T00:46:53.033Z,7.97
2022-08-16T00:49:56.266Z,7.30
2022-08-16T00:52:45.841Z,7.50
2022-08-16T00:55:38.247Z,7.68
2022-08-16T00:58:32.225Z,7.65
2022-08-16T01:01:23.584Z,8.55
2022-08-16T01:04:05.312Z,8.43
2022-08-16T01:07:01.394Z,7.45
2022-08-16T01:09:45.583Z,7.95
2022-08-16T01:12:36.517Z,8.52
2022-08-16T01:15:25.549Z,7.47
2022-08-16T01:18:39.185Z,8.18
2022-08-16T01:21:41.655Z,7.82
2022-08-16T01:24:52.437Z,7.90
2022-08-16T01:27:45.648Z,7.40
2022-08-16T01:30:30.515Z,7.50
2022-08-16T01:33:17.585Z,7.47
2022-08-16T01:35:59.524Z,7.30
2022-08-16T01:38:57.229Z,6.95
2022-08-16T01:41:42.234Z,7.68
2022-08-16T01:44:37.742Z,7.03
2022-08-16T01:47:18.578Z,7.38
2022-08-16T01:50:42.767Z,8.43
2022-08-16T01:53:05.570Z,8.25
2022-08-16T01:56:24.563Z,8.07
2022-08-16T01:59:07.586Z,8.00
2022-08-16T02:02:03.573Z,7.97
2022-08-16T02:05:04.590Z,8.15
2022-08-16T02:07:53.543Z,8.55
2022-08-16T02:10:42.563Z,8.32
2022-08-16T02:13:32.662Z,8.75
2022-08-16T02:16:18.460Z,9.05
2022-08-16T02:19:05.522Z,9.00
2022-08-16T02:22:07.896Z,8.88
2022-08-16T02:25:14.740Z,8.35
2022-08-16T02:28:01.524Z,8.43
2022-08-16T02:30:51.807Z,8.30
2022-08-16T02:33:43.763Z,8.68
2022-08-16T02:36:47.224Z,9.00
2022-08-16T02:39:37.558Z,8.85
2022-08-16T02:42:19.403Z,9.00
2022-08-16T02:45:06.522Z,9.30
2022-08-16T02:48:01.689Z,9.25
2022-08-16T02:51:05.940Z,8.55
2022-08-16T02:53:51.581Z,8.90
2022-08-16T02:56:40.697Z,8.73
2022-08-16T02:59:21.086Z,8.50
2022-08-16T03:02:08.067Z,9.25
2022-08-16T03:04:55.610Z,8.93
2022-08-16T03:07:37.225Z,9.60
2022-08-16T03:10:26.559Z,8.45
2022-08-16T03:13:14.528Z,8.50
2022-08-16T03:15:55.030Z,8.65
2022-08-16T03:18:41.883Z,8.65
2022-08-16T03:21:38.024Z,9.57
2022-08-16T03:24:28.282Z,9.27
2022-08-16T03:27:11.545Z,9.25
2022-08-16T03:29:58.593Z,9.18
2022-08-16T03:32:38.595Z,8.77
2022-08-16T03:35:22.461Z,9.00
2022-08-16T03:38:34.401Z,9.27
2022-08-16T03:41:25.464Z,8.57
2022-08-16T03:44:09.546Z,8.52
2022-08-16T03:46:58.210Z,8.68
2022-08-16T03:49:40.891Z,8.35
2022-08-16T03:52:31.595Z,9.40
2022-08-16T03:55:19.562Z,8.48
2022-08-16T03:58:00.118Z,9.65
2022-08-16T04:00:46.599Z,9.82
2022-08-16T04:03:44.555Z,10.30
2022-08-16T04:06:24.579Z,8.80
2022-08-16T04:09:12.483Z,8.60
2022-08-16T04:12:00.554Z,8.68
2022-08-16T04:14:48.566Z,8.77
2022-08-16T04:17:35.554Z,9.02
2022-08-16T04:20:29.499Z,9.20
2022-08-16T04:23:15.560Z,9.43
2022-08-16T04:26:02.602Z,9.60
2022-08-16T04:29:16.794Z,9.52
2022-08-16T04:32:02.434Z,9.20
2022-08-16T04:34:51.577Z,9.48
2022-08-16T04:37:42.229Z,9.13
2022-08-16T04:40:28.631Z,9.52
2022-08-16T04:43:11.056Z,9.73
2022-08-16T04:46:04.541Z,10.18
2022-08-16T04:49:11.692Z,9.80
2022-08-16T04:51:53.830Z,9.48
2022-08-16T04:54:36.051Z,10.25
2022-08-16T04:57:29.995Z,9.85
2022-08-16T05:00:30.889Z,10.15
2022-08-16T05:03:22.632Z,10.20
2022-08-16T05:06:05.255Z,10.40
2022-08-16T05:08:56.564Z,10.07
2022-08-16T05:11:43.627Z,8.75
2022-08-16T05:14:45.778Z,8.73
2022-08-16T05:17:29.466Z,9.20
2022-08-16T05:20:35.582Z,8.93
2022-08-16T05:23:26.550Z,9.40
2022-08-16T05:26:20.198Z,9.10
2022-08-16T05:29:11.016Z,8.68
2022-08-16T05:32:32.870Z,8.38
2022-08-16T05:35:18.551Z,9.70
2022-08-16T05:38:32.516Z,8.30
2022-08-16T05:41:27.571Z,8.50
2022-08-16T05:44:24.076Z,9.35
2022-08-16T05:47:11.562Z,8.65
2022-08-16T05:49:54.638Z,9.20
2022-08-16T05:55:26.623Z,8.93
2022-08-16T05:58:31.987Z,10.43
2022-08-16T06:01:21.686Z,11.40
2022-08-16T06:04:02.093Z,12.05
2022-08-16T06:06:57.477Z,12.32
2022-08-16T06:09:43.364Z,12.85
2022-08-16T06:12:31.022Z,10.68
2022-08-16T06:15:35.141Z,9.10
2022-08-16T06:18:21.565Z,10.05
2022-08-16T06:21:22.943Z,10.13
2022-08-16T06:24:54.746Z,10.02
2022-08-16T06:27:15.651Z,10.05
2022-08-16T06:29:56.578Z,10.10
2022-08-16T06:32:48.601Z,10.02
2022-08-16T06:35:40.275Z,10.57
2022-08-16T06:38:33.280Z,11.52
2022-08-16T06:41:39.741Z,11.95
2022-08-16T06:44:28.076Z,13.00
2022-08-16T06:47:19.606Z,9.18
2022-08-16T06:50:07.560Z,9.05
2022-08-16T06:53:00.559Z,9.52
2022-08-16T06:56:14.919Z,9.25
2022-08-16T06:59:29.582Z,9.85
2022-08-16T07:02:33.322Z,9.02
2022-08-16T07:05:27.248Z,9.57
2022-08-16T07:08:36.566Z,9.90
2022-08-16T07:11:45.978Z,9.25
2022-08-16T07:14:39.574Z,9.43
2022-08-16T07:17:30.586Z,9.77
2022-08-16T07:20:43.583Z,9.57
2022-08-16T07:23:37.253Z,9.20
2022-08-16T07:26:34.579Z,9.88
2022-08-16T07:29:15.095Z,9.25
2022-08-16T07:32:01.581Z,8.52
2022-08-16T07:34:49.080Z,9.15
2022-08-16T07:37:28.593Z,8.55
2022-08-16T07:40:36.970Z,8.40
2022-08-16T07:43:28.942Z,8.50
2022-08-16T07:46:37.560Z,7.93
2022-08-16T07:49:22.590Z,8.50
2022-08-16T07:52:18.725Z,8.20
2022-08-16T07:55:07.588Z,7.93
2022-08-16T07:58:00.579Z,8.20
2022-08-16T08:00:43.624Z,8.15
2022-08-16T08:03:36.151Z,8.27
2022-08-16T08:06:19.700Z,7.30
2022-08-16T08:09:09.607Z,7.68
2022-08-16T08:12:01.510Z,7.57
2022-08-16T08:14:55.597Z,7.57
2022-08-16T08:17:45.608Z,7.25
2022-08-16T08:20:45.580Z,7.13
2022-08-16T08:23:48.618Z,6.70
2022-08-16T08:26:30.096Z,6.90
2022-08-16T08:29:23.206Z,7.00
2022-08-16T08:33:00.060Z,6.82
2022-08-16T08:35:27.084Z,6.78
2022-08-16T08:38:15.870Z,7.38
2022-08-16T08:41:18.661Z,6.80
2022-08-16T08:44:28.970Z,7.47
2022-08-16T08:47:19.581Z,7.00
2022-08-16T08:50:06.766Z,7.43
2022-08-16T08:52:54.590Z,7.50
2022-08-16T08:55:42.608Z,7.38
2022-08-16T08:58:23.819Z,7.20
2022-08-16T09:01:42.679Z,7.40
2022-08-16T09:04:22.796Z,7.57
2022-08-16T09:07:11.584Z,8.05
2022-08-16T09:10:06.869Z,7.68
2022-08-16T09:13:05.609Z,7.57
2022-08-16T09:15:55.472Z,7.20
2022-08-16T09:18:43.616Z,7.68
2022-08-16T09:21:31.363Z,7.63
2022-08-16T09:24:12.629Z,7.47
2022-08-16T09:27:13.315Z,7.05
2022-08-16T09:30:02.678Z,7.20
2022-08-16T09:33:00.102Z,7.32
2022-08-16T09:35:47.650Z,6.80
2022-08-16T09:38:35.413Z,7.25
2022-08-16T09:41:23.668Z,6.72
2022-08-16T09:45:11.604Z,7.15
2022-08-16T09:47:10.724Z,6.70
2022-08-16T09:49:57.631Z,6.63
2022-08-16T09:52:44.117Z,7.20
2022-08-16T09:55:44.723Z,7.10
2022-08-16T09:58:39.026Z,7.00
2022-08-16T10:01:29.624Z,6.38
2022-08-16T10:04:29.288Z,6.72
2022-08-16T10:07:16.832Z,6.32
2022-08-16T10:09:57.687Z,6.55
2022-08-16T10:13:03.701Z,6.50
2022-08-16T10:15:55.575Z,6.75
2022-08-16T10:19:01.756Z,6.22
2022-08-16T10:21:56.754Z,6.47
2022-08-16T10:24:56.010Z,5.60
2022-08-16T10:27:46.228Z,6.40
2022-08-16T10:30:39.135Z,6.65
2022-08-16T10:33:20.690Z,6.45
2022-08-16T10:36:37.851Z,6.05
2022-08-16T10:39:14.686Z,6.90
2022-08-16T10:42:01.630Z,6.22
2022-08-16T10:44:42.453Z,6.35
2022-08-16T10:47:33.193Z,6.32
2022-08-16T10:50:19.641Z,6.32
2022-08-16T10:53:12.664Z,5.82
2022-08-16T10:55:57.347Z,6.25
2022-08-16T10:58:37.634Z,6.25
2022-08-16T11:01:43.746Z,6.47
2022-08-16T11:05:05.478Z,6.38
2022-08-16T11:07:53.288Z,6.90
2022-08-16T11:11:05.344Z,6.85
2022-08-16T11:14:05.905Z,6.75
2022-08-16T11:17:11.101Z,6.78
2022-08-16T11:23:18.641Z,7.05
2022-08-16T11:26:22.711Z,7.25
2022-08-16T11:29:19.827Z,7.35
2022-08-16T11:32:07.618Z,7.55
2022-08-16T11:35:13.285Z,7.30
2022-08-16T11:38:23.416Z,7.30
2022-08-16T11:41:10.638Z,7.28
2022-08-16T11:43:51.297Z,7.50
2022-08-16T11:46:44.547Z,6.82
2022-08-16T11:49:26.207Z,7.55
2022-08-16T11:52:12.662Z,7.55
2022-08-16T11:55:03.693Z,7.55
2022-08-16T11:57:44.714Z,7.63
2022-08-16T12:00:51.709Z,7.65
2022-08-16T12:03:38.691Z,7.72
2022-08-16T12:06:30.599Z,8.30
2022-08-16T12:09:11.658Z,8.63
2022-08-16T12:12:03.004Z,8.00
2022-08-16T12:14:42.654Z,8.35
2022-08-16T12:17:26.705Z,7.95
2022-08-16T12:20:22.656Z,8.02
2022-08-16T12:23:04.746Z,7.85
2022-08-16T12:25:51.671Z,8.20
2022-08-16T12:28:53.986Z,7.82
2022-08-16T12:32:01.301Z,7.90
2022-08-16T12:34:52.791Z,7.95
2022-08-16T12:37:39.679Z,8.30
2022-08-16T12:40:31.994Z,8.40
2022-08-16T12:43:21.658Z,7.90
2022-08-16T12:46:10.739Z,8.30
2022-08-16T12:49:19.706Z,8.40
2022-08-16T12:52:09.648Z,8.98
2022-08-16T12:55:17.674Z,8.48
2022-08-16T12:58:00.387Z,8.73
2022-08-16T13:00:48.711Z,8.63
2022-08-16T13:03:40.133Z,8.75
2022-08-16T13:06:21.699Z,9.40
2022-08-16T13:09:28.861Z,8.57
2022-08-16T13:12:25.666Z,9.75
2022-08-16T13:15:17.683Z,9.30
2022-08-16T13:18:24.281Z,9.93
2022-08-16T13:21:23.690Z,10.20
2022-08-16T13:24:10.685Z,10.65
2022-08-16T13:26:53.142Z,11.40
2022-08-16T13:29:40.111Z,10.80
2022-08-16T13:32:39.962Z,10.70
2022-08-16T13:35:34.449Z,10.27
2022-08-16T13:38:24.760Z,11.07
2022-08-16T13:41:16.705Z,11.27
2022-08-16T13:43:57.897Z,11.35
2022-08-16T13:46:48.657Z,11.32
2022-08-16T13:49:30.738Z,10.82
2022-08-16T13:52:22.998Z,11.00
2022-08-16T13:55:17.660Z,10.82
2022-08-16T13:58:37.582Z,11.00
2022-08-16T14:01:04.743Z,11.18
2022-08-16T14:03:56.673Z,10.32
2022-08-16T14:06:37.734Z,10.68
2022-08-16T14:09:24.677Z,9.60
2022-08-16T14:12:17.669Z,9.80
2022-08-16T14:15:05.690Z,9.75
2022-08-16T14:18:15.002Z,9.50
2022-08-16T14:20:52.695Z,9.43
2022-08-16T14:23:39.697Z,9.35
2022-08-16T14:26:21.446Z,8.45
2022-08-16T14:29:08.679Z,9.25
2022-08-16T14:31:56.667Z,8.75
2022-08-16T14:34:43.704Z,8.50
2022-08-16T14:37:32.014Z,8.90
2022-08-16T14:40:15.781Z,8.35
2022-08-16T14:43:07.144Z,8.65
2022-08-16T14:45:55.019Z,9.13
2022-08-16T14:48:41.695Z,9.25
2022-08-16T14:51:22.750Z,8.93
2022-08-16T14:54:15.085Z,8.57
2022-08-16T14:56:55.745Z,9.30
2022-08-16T14:59:45.306Z,9.50
2022-08-16T15:02:34.361Z,9.30
2022-08-16T15:05:35.012Z,9.95
2022-08-16T15:08:20.390Z,9.77
2022-08-16T15:11:07.970Z,9.32
2022-08-16T15:13:54.692Z,9.75
2022-08-16T15:16:43.231Z,10.30
2022-08-16T15:19:25.824Z,10.18
2022-08-16T15:22:21.683Z,10.93
2022-08-16T15:25:07.026Z,11.35
2022-08-16T15:27:55.762Z,11.43
2022-08-16T15:30:59.773Z,11.75
2022-08-16T15:33:56.563Z,11.73
2022-08-16T15:36:44.693Z,12.57
2022-08-16T15:39:38.815Z,11.80
2022-08-16T15:42:28.018Z,11.10
2022-08-16T15:45:11.496Z,11.55
2022-08-16T15:48:03.683Z,11.52
2022-08-16T15:50:51.805Z,12.93
2022-08-16T15:53:37.680Z,11.38
2022-08-16T15:56:23.797Z,12.23
2022-08-16T15:59:15.742Z,12.45
2022-08-16T16:01:58.279Z,12.40
2022-08-16T16:04:44.711Z,11.77
2022-08-16T16:07:40.908Z,11.68
2022-08-16T16:10:43.509Z,12.23
2022-08-16T16:13:27.708Z,12.32
2022-08-16T16:16:16.696Z,13.05
2022-08-16T16:19:06.720Z,12.88
2022-08-16T16:22:01.689Z,13.20
2022-08-16T16:24:50.715Z,13.38
2022-08-16T16:27:30.770Z,12.70
2022-08-16T16:30:38.039Z,12.95
2022-08-16T16:33:24.128Z,13.85
2022-08-16T16:36:11.687Z,12.45
2022-08-16T16:38:53.855Z,12.90
2022-08-16T16:41:42.027Z,13.27
2022-08-16T16:44:33.497Z,12.80
2022-08-16T16:47:22.714Z,12.38
2022-08-16T16:50:03.786Z,12.93
2022-08-16T16:52:51.710Z,12.02
2022-08-16T16:55:38.988Z,12.18
2022-08-16T16:58:53.409Z,12.38
2022-08-16T17:01:59.831Z,12.90
2022-08-16T17:04:50.263Z,11.88
2022-08-16T17:07:37.701Z,12.65
2022-08-16T17:10:46.009Z,12.68
2022-08-16T17:13:25.706Z,11.55
2022-08-16T17:16:18.405Z,12.15
2022-08-16T17:19:17.426Z,10.93
2022-08-16T17:22:15.840Z,11.35
2022-08-16T17:25:02.757Z,12.02
2022-08-16T17:27:51.013Z,11.90
2022-08-16T17:30:45.170Z,11.75
2022-08-16T17:33:36.768Z,11.73
2022-08-16T17:36:35.839Z,11.70
2022-08-16T17:39:16.766Z,11.98
2022-08-16T17:42:19.721Z,11.05
2022-08-16T17:45:08.719Z,11.52
2022-08-16T17:47:56.699Z,11.07
2022-08-16T17:50:43.719Z,11.35
2022-08-16T17:53:30.722Z,10.82
2022-08-16T17:56:10.788Z,11.13
2022-08-16T17:58:58.714Z,10.75
2022-08-16T18:01:38.897Z,11.30
2022-08-16T18:04:49.043Z,10.48
2022-08-16T18:07:26.152Z,10.40
2022-08-16T18:10:13.749Z,11.02
2022-08-16T18:13:10.770Z,10.38
2022-08-16T18:15:57.744Z,11.20
2022-08-16T18:18:37.778Z,10.70
2022-08-16T18:21:43.754Z,10.38
2022-08-16T18:24:24.725Z,9.85
2022-08-16T18:27:25.289Z,10.27
2022-08-16T18:30:06.787Z,9.90
2022-08-16T18:32:55.704Z,10.20
2022-08-16T18:35:35.808Z,11.02
2022-08-16T18:38:22.722Z,10.43
2022-08-16T18:41:09.742Z,10.65
2022-08-16T18:44:26.391Z,10.35
2022-08-16T18:46:56.853Z,10.05
2022-08-16T18:49:43.751Z,10.38
2022-08-16T18:52:25.944Z,10.65
2022-08-16T18:55:14.003Z,10.70
2022-08-16T18:57:54.802Z,11.00
2022-08-16T19:00:50.541Z,9.93
2022-08-16T19:03:38.799Z,9.50
2022-08-16T19:06:25.742Z,10.60
2022-08-16T19:09:05.800Z,10.10
2022-08-16T19:11:52.751Z,10.25
2022-08-16T19:14:32.802Z,10.15
2022-08-16T19:17:19.745Z,9.85
2022-08-16T19:19:59.821Z,9.50
2022-08-16T19:23:05.935Z,10.23
2022-08-16T19:25:52.898Z,10.35
2022-08-16T19:28:51.365Z,10.10
2022-08-16T19:31:39.782Z,10.85
2022-08-16T19:34:26.749Z,10.35
2022-08-16T19:37:13.743Z,10.27
2022-08-16T19:39:54.596Z,12.65
2022-08-16T19:42:41.992Z,12.73
2022-08-16T19:45:36.868Z,11.93
2022-08-16T19:48:23.745Z,12.35
2022-08-16T19:50:56.791Z,12.55
2022-08-16T19:53:43.755Z,12.30
2022-08-16T19:56:25.937Z,12.48
2022-08-16T19:59:21.816Z,13.45
2022-08-16T20:02:02.085Z,12.95
2022-08-16T20:04:48.754Z,13.30
2022-08-16T20:07:28.805Z,13.70
2022-08-16T20:10:16.759Z,13.52
2022-08-16T20:13:02.447Z,13.80
2022-08-16T20:15:50.761Z,14.98
2022-08-16T20:18:32.535Z,14.95
2022-08-16T20:21:20.737Z,15.07
2022-08-16T20:24:32.600Z,13.65
2022-08-16T20:27:09.731Z,16.60
2022-08-16T20:29:58.742Z,18.50
2022-08-16T20:32:45.819Z,16.30
2022-08-16T20:35:30.745Z,14.65
2022-08-16T20:38:19.385Z,15.23
2022-08-16T20:40:58.751Z,13.80
2022-08-16T20:43:39.263Z,13.60
2022-08-16T20:46:26.766Z,16.40
2022-08-16T20:49:09.239Z,19.38
2022-08-16T20:51:59.577Z,14.65
2022-08-16T20:54:46.883Z,13.60
2022-08-16T20:57:26.761Z,14.85
2022-08-16T21:00:10.162Z,14.02
2022-08-16T21:02:56.750Z,13.50
2022-08-16T21:05:37.508Z,14.02
2022-08-16T21:08:50.956Z,17.13
2022-08-16T21:11:28.332Z,13.65
2022-08-16T21:14:17.763Z,16.70
2022-08-16T21:16:58.263Z,14.93
2022-08-16T21:19:45.761Z,18.98
2022-08-16T21:22:39.746Z,17.35
2022-08-16T21:25:26.762Z,15.93
2022-08-16T21:28:39.995Z,20.35
2022-08-16T21:31:15.771Z,19.80
2022-08-16T21:33:56.417Z,17.60
2022-08-16T21:36:42.784Z,18.90
2022-08-16T21:39:22.829Z,20.15
2022-08-16T21:42:15.786Z,18.27
2022-08-16T21:44:55.874Z,16.02
2022-08-16T21:47:42.779Z,19.85
2022-08-16T21:50:22.925Z,16.98
2022-08-16T21:53:23.769Z,20.80
2022-08-16T21:56:05.854Z,19.83
2022-08-16T21:58:53.942Z,18.10
2022-08-16T22:01:33.880Z,18.92
2022-08-16T22:04:37.175Z,22.58
2022-08-16T22:07:19.902Z,22.42
2022-08-16T22:11:06.899Z,21.27
2022-08-16T22:13:06.831Z,22.35
2022-08-16T22:15:54.774Z,19.65
2022-08-16T22:18:34.846Z,21.42
2022-08-16T22:21:21.779Z,20.63
2022-08-16T22:24:02.849Z,21.73
2022-08-16T22:26:49.764Z,20.60
2022-08-16T22:29:30.863Z,21.88
2022-08-16T22:32:17.781Z,20.42
2022-08-16T22:35:00.905Z,20.55
2022-08-16T22:38:54.812Z,20.80
2022-08-16T22:40:59.091Z,20.20
2022-08-16T22:43:45.787Z,18.48
2022-08-16T22:46:40.770Z,19.42
2022-08-16T22:49:27.770Z,19.73
2022-08-16T22:52:15.845Z,19.13
2022-08-16T22:55:26.106Z,18.70
2022-08-16T22:58:05.826Z,19.20
2022-08-16T23:00:52.803Z,18.17
2022-08-16T23:03:39.802Z,17.27
2022-08-16T23:06:26.843Z,18.58
2022-08-16T23:09:06.871Z,19.10
2022-08-16T23:11:53.778Z,18.17
2022-08-16T23:14:33.928Z,18.33
2022-08-16T23:17:22.794Z,18.08
2022-08-16T23:20:02.940Z,18.35
2022-08-16T23:23:19.819Z,17.23
2022-08-16T23:25:55.890Z,17.08
2022-08-16T23:28:43.781Z,18.15
2022-08-16T23:31:30.776Z,17.80
2022-08-16T23:34:12.524Z,17.48
2022-08-16T23:36:58.829Z,16.52
2022-08-16T23:39:45.896Z,16.38
2022-08-16T23:42:52.157Z,16.77
2022-08-16T23:45:31.190Z,17.27
2022-08-16T23:48:18.790Z,16.52
2022-08-16T23:51:00.931Z,17.48
2022-08-16T23:53:50.800Z,17.80
2022-08-16T23:56:38.975Z,18.40
2022-08-16T23:59:27.801Z,17.45
